sensor_id;sensor_type;location;lat;lon;timestamp;P1;durP1;ratioP1;P2;durP2;ratioP2
16969;SDS011;8601;48.718;8.992;2023-03-01T00:02:14;17.10;;;14.33;;
16969;SDS011;8601;48.718;8.992;2023-03-01T00:04:41;18.40;;;13.43;;
16969;SDS011;8601;48.718;8.992;2023-03-01T00:07:08;19.53;;;14.53;;
16969;SDS011;8601;48.718;8.992;2023-03-01T00:09:38;17.73;;;13.27;;
16969;SDS011;8601;48.718;8.992;2023-03-01T00:12:06;16.80;;;14.40;;
16969;SDS011;8601;48.718;8.992;2023-03-01T00:14:34;19.17;;;13.70;;
16969;SDS011;8601;48.718;8.992;2023-03-01T00:17:02;17.83;;;14.43;;
16969;SDS011;8601;48.718;8.992;2023-03-01T00:19:39;16.90;;;13.97;;
16969;SDS011;8601;48.718;8.992;2023-03-01T00:22:07;18.93;;;14.93;;
16969;SDS011;8601;48.718;8.992;2023-03-01T00:24:33;20.10;;;15.30;;
16969;SDS011;8601;48.718;8.992;2023-03-01T00:27:04;16.13;;;13.70;;
16969;SDS011;8601;48.718;8.992;2023-03-01T00:29:31;17.60;;;14.30;;
16969;SDS011;8601;48.718;8.992;2023-03-01T00:31:57;16.77;;;13.97;;
16969;SDS011;8601;48.718;8.992;2023-03-01T00:34:25;18.93;;;14.20;;
16969;SDS011;8601;48.718;8.992;2023-03-01T00:36:52;17.43;;;13.53;;
16969;SDS011;8601;48.718;8.992;2023-03-01T00:39:18;17.33;;;14.33;;
16969;SDS011;8601;48.718;8.992;2023-03-01T00:41:45;16.47;;;13.50;;
16969;SDS011;8601;48.718;8.992;2023-03-01T00:44:14;17.30;;;14.33;;
16969;SDS011;8601;48.718;8.992;2023-03-01T00:46:41;16.63;;;13.57;;
16969;SDS011;8601;48.718;8.992;2023-03-01T00:49:08;18.23;;;14.43;;
16969;SDS011;8601;48.718;8.992;2023-03-01T00:51:34;17.23;;;12.90;;
16969;SDS011;8601;48.718;8.992;2023-03-01T00:54:02;19.23;;;14.10;;
16969;SDS011;8601;48.718;8.992;2023-03-01T00:56:29;18.70;;;13.17;;
16969;SDS011;8601;48.718;8.992;2023-03-01T00:59:04;15.77;;;12.60;;
16969;SDS011;8601;48.718;8.992;2023-03-01T01:01:32;16.20;;;13.47;;
16969;SDS011;8601;48.718;8.992;2023-03-01T01:04:00;18.97;;;14.17;;
16969;SDS011;8601;48.718;8.992;2023-03-01T01:06:35;15.80;;;13.33;;
16969;SDS011;8601;48.718;8.992;2023-03-01T01:09:04;17.23;;;13.57;;
16969;SDS011;8601;48.718;8.992;2023-03-01T01:11:32;17.43;;;14.63;;
16969;SDS011;8601;48.718;8.992;2023-03-01T01:14:01;18.13;;;13.57;;
16969;SDS011;8601;48.718;8.992;2023-03-01T01:16:28;15.83;;;13.77;;
16969;SDS011;8601;48.718;8.992;2023-03-01T01:18:58;18.13;;;14.13;;
16969;SDS011;8601;48.718;8.992;2023-03-01T01:21:25;17.73;;;14.13;;
16969;SDS011;8601;48.718;8.992;2023-03-01T01:23:52;19.30;;;14.63;;
16969;SDS011;8601;48.718;8.992;2023-03-01T01:26:21;16.43;;;13.30;;
16969;SDS011;8601;48.718;8.992;2023-03-01T01:28:49;15.93;;;13.10;;
16969;SDS011;8601;48.718;8.992;2023-03-01T01:31:16;21.23;;;13.73;;
16969;SDS011;8601;48.718;8.992;2023-03-01T01:33:44;16.70;;;13.77;;
16969;SDS011;8601;48.718;8.992;2023-03-01T01:36:13;16.43;;;13.63;;
16969;SDS011;8601;48.718;8.992;2023-03-01T01:38:40;17.30;;;14.63;;
16969;SDS011;8601;48.718;8.992;2023-03-01T01:41:07;19.10;;;14.80;;
16969;SDS011;8601;48.718;8.992;2023-03-01T01:43:37;19.93;;;15.07;;
16969;SDS011;8601;48.718;8.992;2023-03-01T01:46:06;19.13;;;15.63;;
16969;SDS011;8601;48.718;8.992;2023-03-01T01:48:43;19.73;;;14.87;;
16969;SDS011;8601;48.718;8.992;2023-03-01T01:51:15;19.67;;;15.53;;
16969;SDS011;8601;48.718;8.992;2023-03-01T01:53:55;19.73;;;15.30;;
16969;SDS011;8601;48.718;8.992;2023-03-01T01:56:26;20.87;;;15.07;;
16969;SDS011;8601;48.718;8.992;2023-03-01T01:58:54;17.97;;;14.60;;
16969;SDS011;8601;48.718;8.992;2023-03-01T02:01:22;17.87;;;14.77;;
16969;SDS011;8601;48.718;8.992;2023-03-01T02:03:49;19.53;;;15.43;;
16969;SDS011;8601;48.718;8.992;2023-03-01T02:06:19;19.50;;;15.73;;
16969;SDS011;8601;48.718;8.992;2023-03-01T02:08:49;19.70;;;15.47;;
16969;SDS011;8601;48.718;8.992;2023-03-01T02:11:18;18.40;;;15.03;;
16969;SDS011;8601;48.718;8.992;2023-03-01T02:13:47;19.13;;;15.07;;
16969;SDS011;8601;48.718;8.992;2023-03-01T02:16:22;20.33;;;15.60;;
16969;SDS011;8601;48.718;8.992;2023-03-01T02:18:49;17.87;;;14.53;;
16969;SDS011;8601;48.718;8.992;2023-03-01T02:21:25;19.07;;;15.13;;
16969;SDS011;8601;48.718;8.992;2023-03-01T02:24:03;19.83;;;15.70;;
16969;SDS011;8601;48.718;8.992;2023-03-01T02:26:40;18.40;;;15.40;;
16969;SDS011;8601;48.718;8.992;2023-03-01T02:29:12;18.50;;;14.53;;
16969;SDS011;8601;48.718;8.992;2023-03-01T02:31:39;22.10;;;15.80;;
16969;SDS011;8601;48.718;8.992;2023-03-01T02:34:10;18.90;;;15.23;;
16969;SDS011;8601;48.718;8.992;2023-03-01T02:36:39;21.77;;;16.47;;
16969;SDS011;8601;48.718;8.992;2023-03-01T02:39:10;20.33;;;16.20;;
16969;SDS011;8601;48.718;8.992;2023-03-01T02:41:43;21.30;;;16.30;;
16969;SDS011;8601;48.718;8.992;2023-03-01T02:44:14;22.20;;;16.40;;
16969;SDS011;8601;48.718;8.992;2023-03-01T02:46:42;18.97;;;14.93;;
16969;SDS011;8601;48.718;8.992;2023-03-01T02:49:18;20.83;;;15.53;;
16969;SDS011;8601;48.718;8.992;2023-03-01T02:51:51;17.13;;;15.17;;
16969;SDS011;8601;48.718;8.992;2023-03-01T02:54:36;21.40;;;15.90;;
16969;SDS011;8601;48.718;8.992;2023-03-01T02:57:09;20.63;;;15.60;;
16969;SDS011;8601;48.718;8.992;2023-03-01T02:59:37;23.03;;;16.20;;
16969;SDS011;8601;48.718;8.992;2023-03-01T03:02:22;19.43;;;15.57;;
16969;SDS011;8601;48.718;8.992;2023-03-01T03:05:01;18.17;;;15.47;;
16969;SDS011;8601;48.718;8.992;2023-03-01T03:07:31;22.80;;;16.70;;
16969;SDS011;8601;48.718;8.992;2023-03-01T03:09:59;19.67;;;15.40;;
16969;SDS011;8601;48.718;8.992;2023-03-01T03:12:34;20.23;;;16.20;;
16969;SDS011;8601;48.718;8.992;2023-03-01T03:15:02;20.87;;;16.33;;
16969;SDS011;8601;48.718;8.992;2023-03-01T03:17:33;19.57;;;15.97;;
16969;SDS011;8601;48.718;8.992;2023-03-01T03:20:00;20.53;;;15.80;;
16969;SDS011;8601;48.718;8.992;2023-03-01T03:22:28;20.63;;;16.63;;
16969;SDS011;8601;48.718;8.992;2023-03-01T03:24:55;20.67;;;16.90;;
16969;SDS011;8601;48.718;8.992;2023-03-01T03:27:22;20.30;;;16.60;;
16969;SDS011;8601;48.718;8.992;2023-03-01T03:29:49;19.87;;;16.67;;
16969;SDS011;8601;48.718;8.992;2023-03-01T03:32:17;22.20;;;16.43;;
16969;SDS011;8601;48.718;8.992;2023-03-01T03:34:44;20.27;;;15.77;;
16969;SDS011;8601;48.718;8.992;2023-03-01T03:37:11;19.20;;;16.33;;
16969;SDS011;8601;48.718;8.992;2023-03-01T03:39:52;21.30;;;17.10;;
16969;SDS011;8601;48.718;8.992;2023-03-01T03:42:19;20.97;;;15.73;;
16969;SDS011;8601;48.718;8.992;2023-03-01T03:44:46;20.43;;;15.63;;
16969;SDS011;8601;48.718;8.992;2023-03-01T03:47:14;21.40;;;16.17;;
16969;SDS011;8601;48.718;8.992;2023-03-01T03:49:42;22.90;;;16.57;;
16969;SDS011;8601;48.718;8.992;2023-03-01T03:52:12;18.37;;;15.17;;
16969;SDS011;8601;48.718;8.992;2023-03-01T03:54:39;21.57;;;17.07;;
16969;SDS011;8601;48.718;8.992;2023-03-01T03:57:08;23.97;;;16.57;;
16969;SDS011;8601;48.718;8.992;2023-03-01T03:59:35;20.90;;;16.33;;
16969;SDS011;8601;48.718;8.992;2023-03-01T04:02:02;21.33;;;16.80;;
16969;SDS011;8601;48.718;8.992;2023-03-01T04:04:29;20.80;;;16.93;;
16969;SDS011;8601;48.718;8.992;2023-03-01T04:06:57;22.97;;;16.37;;
16969;SDS011;8601;48.718;8.992;2023-03-01T04:09:24;21.93;;;16.27;;
16969;SDS011;8601;48.718;8.992;2023-03-01T04:11:51;21.70;;;15.80;;
16969;SDS011;8601;48.718;8.992;2023-03-01T04:14:17;20.73;;;16.63;;
16969;SDS011;8601;48.718;8.992;2023-03-01T04:16:44;21.10;;;16.40;;
16969;SDS011;8601;48.718;8.992;2023-03-01T04:19:12;20.27;;;16.40;;
16969;SDS011;8601;48.718;8.992;2023-03-01T04:21:40;21.40;;;17.03;;
16969;SDS011;8601;48.718;8.992;2023-03-01T04:24:08;19.67;;;15.90;;
16969;SDS011;8601;48.718;8.992;2023-03-01T04:26:36;21.97;;;16.67;;
16969;SDS011;8601;48.718;8.992;2023-03-01T04:29:02;20.37;;;16.60;;
16969;SDS011;8601;48.718;8.992;2023-03-01T04:31:30;20.13;;;16.97;;
16969;SDS011;8601;48.718;8.992;2023-03-01T04:33:56;22.03;;;17.00;;
16969;SDS011;8601;48.718;8.992;2023-03-01T04:36:25;21.80;;;16.63;;
16969;SDS011;8601;48.718;8.992;2023-03-01T04:38:53;22.63;;;17.33;;
16969;SDS011;8601;48.718;8.992;2023-03-01T04:41:23;20.40;;;16.13;;
16969;SDS011;8601;48.718;8.992;2023-03-01T04:43:50;21.10;;;16.40;;
16969;SDS011;8601;48.718;8.992;2023-03-01T04:46:18;19.70;;;16.07;;
16969;SDS011;8601;48.718;8.992;2023-03-01T04:48:46;21.70;;;16.90;;
16969;SDS011;8601;48.718;8.992;2023-03-01T04:51:13;21.67;;;17.17;;
16969;SDS011;8601;48.718;8.992;2023-03-01T04:53:41;24.30;;;17.60;;
16969;SDS011;8601;48.718;8.992;2023-03-01T04:56:09;19.77;;;16.13;;
16969;SDS011;8601;48.718;8.992;2023-03-01T04:58:40;20.00;;;15.53;;
16969;SDS011;8601;48.718;8.992;2023-03-01T05:01:13;22.23;;;16.13;;
16969;SDS011;8601;48.718;8.992;2023-03-01T05:03:49;20.93;;;16.77;;
16969;SDS011;8601;48.718;8.992;2023-03-01T05:06:17;21.53;;;15.97;;
16969;SDS011;8601;48.718;8.992;2023-03-01T05:08:52;20.77;;;17.43;;
16969;SDS011;8601;48.718;8.992;2023-03-01T05:11:19;21.60;;;16.30;;
16969;SDS011;8601;48.718;8.992;2023-03-01T05:13:47;22.80;;;16.07;;
16969;SDS011;8601;48.718;8.992;2023-03-01T05:16:19;23.07;;;16.87;;
16969;SDS011;8601;48.718;8.992;2023-03-01T05:18:46;22.80;;;16.90;;
16969;SDS011;8601;48.718;8.992;2023-03-01T05:21:16;20.53;;;16.73;;
16969;SDS011;8601;48.718;8.992;2023-03-01T05:23:43;21.07;;;17.00;;
16969;SDS011;8601;48.718;8.992;2023-03-01T05:26:12;25.80;;;17.87;;
16969;SDS011;8601;48.718;8.992;2023-03-01T05:28:39;20.27;;;17.23;;
16969;SDS011;8601;48.718;8.992;2023-03-01T05:31:08;22.27;;;17.47;;
16969;SDS011;8601;48.718;8.992;2023-03-01T05:33:36;23.80;;;18.17;;
16969;SDS011;8601;48.718;8.992;2023-03-01T05:36:05;21.50;;;17.60;;
16969;SDS011;8601;48.718;8.992;2023-03-01T05:38:34;22.27;;;16.20;;
16969;SDS011;8601;48.718;8.992;2023-03-01T05:41:02;22.87;;;17.37;;
16969;SDS011;8601;48.718;8.992;2023-03-01T05:43:30;22.33;;;16.80;;
16969;SDS011;8601;48.718;8.992;2023-03-01T05:45:59;21.40;;;16.90;;
16969;SDS011;8601;48.718;8.992;2023-03-01T05:48:27;22.67;;;16.97;;
16969;SDS011;8601;48.718;8.992;2023-03-01T05:50:54;22.77;;;18.37;;
16969;SDS011;8601;48.718;8.992;2023-03-01T05:53:21;22.57;;;17.20;;
16969;SDS011;8601;48.718;8.992;2023-03-01T05:55:48;24.30;;;16.97;;
16969;SDS011;8601;48.718;8.992;2023-03-01T05:58:16;23.63;;;18.03;;
16969;SDS011;8601;48.718;8.992;2023-03-01T06:00:45;23.27;;;18.60;;
16969;SDS011;8601;48.718;8.992;2023-03-01T06:03:14;21.00;;;16.77;;
16969;SDS011;8601;48.718;8.992;2023-03-01T06:05:44;21.60;;;17.10;;
16969;SDS011;8601;48.718;8.992;2023-03-01T06:08:11;21.70;;;18.03;;
16969;SDS011;8601;48.718;8.992;2023-03-01T06:10:40;23.90;;;18.50;;
16969;SDS011;8601;48.718;8.992;2023-03-01T06:13:09;22.50;;;17.83;;
16969;SDS011;8601;48.718;8.992;2023-03-01T06:15:36;23.90;;;17.63;;
16969;SDS011;8601;48.718;8.992;2023-03-01T06:18:03;23.70;;;18.00;;
16969;SDS011;8601;48.718;8.992;2023-03-01T06:20:30;21.77;;;17.53;;
16969;SDS011;8601;48.718;8.992;2023-03-01T06:22:58;22.50;;;16.77;;
16969;SDS011;8601;48.718;8.992;2023-03-01T06:25:26;22.00;;;17.17;;
16969;SDS011;8601;48.718;8.992;2023-03-01T06:27:54;22.67;;;17.47;;
16969;SDS011;8601;48.718;8.992;2023-03-01T06:30:22;20.53;;;17.40;;
16969;SDS011;8601;48.718;8.992;2023-03-01T06:32:50;23.37;;;17.30;;
16969;SDS011;8601;48.718;8.992;2023-03-01T06:35:19;24.57;;;18.67;;
16969;SDS011;8601;48.718;8.992;2023-03-01T06:37:46;22.80;;;17.33;;
16969;SDS011;8601;48.718;8.992;2023-03-01T06:40:15;21.73;;;17.37;;
16969;SDS011;8601;48.718;8.992;2023-03-01T06:42:47;23.73;;;18.77;;
16969;SDS011;8601;48.718;8.992;2023-03-01T06:45:15;23.53;;;17.70;;
16969;SDS011;8601;48.718;8.992;2023-03-01T06:47:42;22.83;;;18.27;;
16969;SDS011;8601;48.718;8.992;2023-03-01T06:50:10;21.70;;;17.40;;
16969;SDS011;8601;48.718;8.992;2023-03-01T06:52:38;20.93;;;17.80;;
16969;SDS011;8601;48.718;8.992;2023-03-01T06:55:07;22.57;;;17.67;;
16969;SDS011;8601;48.718;8.992;2023-03-01T06:57:35;23.73;;;17.67;;
16969;SDS011;8601;48.718;8.992;2023-03-01T07:00:02;20.10;;;17.33;;
16969;SDS011;8601;48.718;8.992;2023-03-01T07:02:30;23.10;;;17.83;;
16969;SDS011;8601;48.718;8.992;2023-03-01T07:04:57;22.90;;;17.17;;
16969;SDS011;8601;48.718;8.992;2023-03-01T07:07:24;21.97;;;17.27;;
16969;SDS011;8601;48.718;8.992;2023-03-01T07:09:51;20.73;;;16.97;;
16969;SDS011;8601;48.718;8.992;2023-03-01T07:12:18;20.80;;;18.00;;
16969;SDS011;8601;48.718;8.992;2023-03-01T07:14:46;23.50;;;17.30;;
16969;SDS011;8601;48.718;8.992;2023-03-01T07:17:13;21.57;;;17.47;;
16969;SDS011;8601;48.718;8.992;2023-03-01T07:19:40;22.10;;;17.03;;
16969;SDS011;8601;48.718;8.992;2023-03-01T07:22:06;23.67;;;18.40;;
16969;SDS011;8601;48.718;8.992;2023-03-01T07:24:34;24.93;;;17.67;;
16969;SDS011;8601;48.718;8.992;2023-03-01T07:27:02;21.90;;;16.87;;
16969;SDS011;8601;48.718;8.992;2023-03-01T07:29:29;21.30;;;17.87;;
16969;SDS011;8601;48.718;8.992;2023-03-01T07:31:57;23.43;;;17.20;;
16969;SDS011;8601;48.718;8.992;2023-03-01T07:34:24;20.20;;;15.33;;
16969;SDS011;8601;48.718;8.992;2023-03-01T07:36:51;18.77;;;15.03;;
16969;SDS011;8601;48.718;8.992;2023-03-01T07:39:18;22.03;;;16.90;;
16969;SDS011;8601;48.718;8.992;2023-03-01T07:41:47;18.63;;;16.33;;
16969;SDS011;8601;48.718;8.992;2023-03-01T07:44:14;22.73;;;17.53;;
16969;SDS011;8601;48.718;8.992;2023-03-01T07:46:42;21.67;;;17.17;;
16969;SDS011;8601;48.718;8.992;2023-03-01T07:49:11;21.27;;;15.67;;
16969;SDS011;8601;48.718;8.992;2023-03-01T07:51:37;19.87;;;16.60;;
16969;SDS011;8601;48.718;8.992;2023-03-01T07:54:05;22.83;;;18.17;;
16969;SDS011;8601;48.718;8.992;2023-03-01T07:56:32;20.27;;;16.20;;
16969;SDS011;8601;48.718;8.992;2023-03-01T07:58:59;23.10;;;16.90;;
16969;SDS011;8601;48.718;8.992;2023-03-01T08:01:26;21.83;;;17.37;;
16969;SDS011;8601;48.718;8.992;2023-03-01T08:03:53;22.87;;;17.97;;
16969;SDS011;8601;48.718;8.992;2023-03-01T08:06:21;23.77;;;18.57;;
16969;SDS011;8601;48.718;8.992;2023-03-01T08:08:48;23.03;;;17.63;;
16969;SDS011;8601;48.718;8.992;2023-03-01T08:11:19;25.80;;;18.77;;
16969;SDS011;8601;48.718;8.992;2023-03-01T08:13:47;21.77;;;16.93;;
16969;SDS011;8601;48.718;8.992;2023-03-01T08:16:15;23.57;;;17.83;;
16969;SDS011;8601;48.718;8.992;2023-03-01T08:18:44;23.87;;;19.43;;
16969;SDS011;8601;48.718;8.992;2023-03-01T08:21:11;24.00;;;18.77;;
16969;SDS011;8601;48.718;8.992;2023-03-01T08:23:42;24.37;;;19.03;;
16969;SDS011;8601;48.718;8.992;2023-03-01T08:26:10;25.37;;;19.13;;
16969;SDS011;8601;48.718;8.992;2023-03-01T08:28:38;26.90;;;18.67;;
16969;SDS011;8601;48.718;8.992;2023-03-01T08:31:17;23.90;;;19.07;;
16969;SDS011;8601;48.718;8.992;2023-03-01T08:33:47;23.83;;;17.63;;
16969;SDS011;8601;48.718;8.992;2023-03-01T08:36:16;25.93;;;18.53;;
16969;SDS011;8601;48.718;8.992;2023-03-01T08:38:47;23.83;;;18.17;;
16969;SDS011;8601;48.718;8.992;2023-03-01T08:41:14;24.00;;;18.13;;
16969;SDS011;8601;48.718;8.992;2023-03-01T08:43:43;23.70;;;18.70;;
16969;SDS011;8601;48.718;8.992;2023-03-01T08:46:10;25.10;;;18.07;;
16969;SDS011;8601;48.718;8.992;2023-03-01T08:48:38;22.63;;;17.50;;
16969;SDS011;8601;48.718;8.992;2023-03-01T08:51:08;25.93;;;19.07;;
16969;SDS011;8601;48.718;8.992;2023-03-01T08:53:38;22.30;;;18.23;;
16969;SDS011;8601;48.718;8.992;2023-03-01T08:56:06;21.90;;;17.17;;
16969;SDS011;8601;48.718;8.992;2023-03-01T08:58:34;23.57;;;17.80;;
16969;SDS011;8601;48.718;8.992;2023-03-01T09:01:06;22.50;;;18.60;;
16969;SDS011;8601;48.718;8.992;2023-03-01T09:03:33;21.97;;;19.30;;
16969;SDS011;8601;48.718;8.992;2023-03-01T09:06:00;24.07;;;18.33;;
16969;SDS011;8601;48.718;8.992;2023-03-01T09:08:28;21.73;;;17.57;;
16969;SDS011;8601;48.718;8.992;2023-03-01T09:10:56;24.20;;;17.77;;
16969;SDS011;8601;48.718;8.992;2023-03-01T09:13:25;22.27;;;17.03;;
16969;SDS011;8601;48.718;8.992;2023-03-01T09:15:56;23.60;;;17.53;;
16969;SDS011;8601;48.718;8.992;2023-03-01T09:18:23;22.73;;;17.97;;
16969;SDS011;8601;48.718;8.992;2023-03-01T09:20:50;22.37;;;17.80;;
16969;SDS011;8601;48.718;8.992;2023-03-01T09:23:19;22.90;;;17.03;;
16969;SDS011;8601;48.718;8.992;2023-03-01T09:25:46;22.63;;;17.03;;
16969;SDS011;8601;48.718;8.992;2023-03-01T09:28:14;22.17;;;16.50;;
16969;SDS011;8601;48.718;8.992;2023-03-01T09:30:42;22.73;;;16.87;;
16969;SDS011;8601;48.718;8.992;2023-03-01T09:33:09;21.03;;;17.57;;
16969;SDS011;8601;48.718;8.992;2023-03-01T09:35:39;24.07;;;17.43;;
16969;SDS011;8601;48.718;8.992;2023-03-01T09:38:11;21.53;;;17.60;;
16969;SDS011;8601;48.718;8.992;2023-03-01T09:40:41;20.73;;;16.97;;
16969;SDS011;8601;48.718;8.992;2023-03-01T09:43:15;20.80;;;17.37;;
16969;SDS011;8601;48.718;8.992;2023-03-01T09:45:49;22.27;;;17.27;;
16969;SDS011;8601;48.718;8.992;2023-03-01T09:48:20;21.83;;;16.33;;
16969;SDS011;8601;48.718;8.992;2023-03-01T09:50:52;26.63;;;18.63;;
16969;SDS011;8601;48.718;8.992;2023-03-01T09:53:19;23.67;;;19.00;;
16969;SDS011;8601;48.718;8.992;2023-03-01T09:55:50;20.40;;;15.83;;
16969;SDS011;8601;48.718;8.992;2023-03-01T09:58:34;23.87;;;17.40;;
16969;SDS011;8601;48.718;8.992;2023-03-01T10:01:15;20.23;;;16.63;;
16969;SDS011;8601;48.718;8.992;2023-03-01T10:04:20;19.07;;;16.13;;
16969;SDS011;8601;48.718;8.992;2023-03-01T10:07:04;22.83;;;17.50;;
16969;SDS011;8601;48.718;8.992;2023-03-01T10:09:49;22.20;;;17.43;;
16969;SDS011;8601;48.718;8.992;2023-03-01T10:12:17;21.00;;;17.40;;
16969;SDS011;8601;48.718;8.992;2023-03-01T10:14:49;26.10;;;18.27;;
16969;SDS011;8601;48.718;8.992;2023-03-01T10:17:25;24.60;;;18.13;;
16969;SDS011;8601;48.718;8.992;2023-03-01T10:19:57;21.60;;;18.03;;
16969;SDS011;8601;48.718;8.992;2023-03-01T10:22:47;22.30;;;17.30;;
16969;SDS011;8601;48.718;8.992;2023-03-01T10:25:20;22.47;;;16.53;;
16969;SDS011;8601;48.718;8.992;2023-03-01T10:27:54;24.13;;;17.20;;
16969;SDS011;8601;48.718;8.992;2023-03-01T10:30:29;21.77;;;17.40;;
16969;SDS011;8601;48.718;8.992;2023-03-01T10:33:04;24.97;;;17.13;;
16969;SDS011;8601;48.718;8.992;2023-03-01T10:35:43;22.77;;;17.37;;
16969;SDS011;8601;48.718;8.992;2023-03-01T10:38:12;22.30;;;16.97;;
16969;SDS011;8601;48.718;8.992;2023-03-01T10:40:50;21.60;;;17.93;;
16969;SDS011;8601;48.718;8.992;2023-03-01T10:43:19;20.93;;;16.10;;
16969;SDS011;8601;48.718;8.992;2023-03-01T10:45:48;19.10;;;16.80;;
16969;SDS011;8601;48.718;8.992;2023-03-01T10:48:18;19.60;;;16.70;;
16969;SDS011;8601;48.718;8.992;2023-03-01T10:50:49;21.23;;;17.43;;
16969;SDS011;8601;48.718;8.992;2023-03-01T10:53:20;21.60;;;17.07;;
16969;SDS011;8601;48.718;8.992;2023-03-01T10:55:56;20.60;;;17.37;;
16969;SDS011;8601;48.718;8.992;2023-03-01T10:58:29;21.77;;;18.33;;
16969;SDS011;8601;48.718;8.992;2023-03-01T11:00:57;20.07;;;16.30;;
16969;SDS011;8601;48.718;8.992;2023-03-01T11:03:28;19.53;;;16.27;;
16969;SDS011;8601;48.718;8.992;2023-03-01T11:05:58;22.23;;;16.03;;
16969;SDS011;8601;48.718;8.992;2023-03-01T11:08:40;18.80;;;16.20;;
16969;SDS011;8601;48.718;8.992;2023-03-01T11:11:23;22.23;;;17.40;;
16969;SDS011;8601;48.718;8.992;2023-03-01T11:13:57;19.40;;;16.30;;
16969;SDS011;8601;48.718;8.992;2023-03-01T11:16:26;18.67;;;16.47;;
16969;SDS011;8601;48.718;8.992;2023-03-01T11:18:58;18.13;;;16.23;;
16969;SDS011;8601;48.718;8.992;2023-03-01T11:21:28;14.40;;;12.63;;
16969;SDS011;8601;48.718;8.992;2023-03-01T11:23:58;17.97;;;16.07;;
16969;SDS011;8601;48.718;8.992;2023-03-01T11:26:27;16.77;;;14.97;;
16969;SDS011;8601;48.718;8.992;2023-03-01T11:29:00;20.17;;;17.50;;
16969;SDS011;8601;48.718;8.992;2023-03-01T11:31:31;20.77;;;16.40;;
16969;SDS011;8601;48.718;8.992;2023-03-01T11:34:02;18.73;;;16.43;;
16969;SDS011;8601;48.718;8.992;2023-03-01T11:36:35;19.07;;;16.33;;
16969;SDS011;8601;48.718;8.992;2023-03-01T11:39:12;18.30;;;16.30;;
16969;SDS011;8601;48.718;8.992;2023-03-01T11:41:47;18.07;;;13.87;;
16969;SDS011;8601;48.718;8.992;2023-03-01T11:44:18;19.27;;;15.83;;
16969;SDS011;8601;48.718;8.992;2023-03-01T11:47:02;20.77;;;16.33;;
16969;SDS011;8601;48.718;8.992;2023-03-01T11:49:51;18.77;;;15.53;;
16969;SDS011;8601;48.718;8.992;2023-03-01T11:52:40;18.17;;;15.37;;
16969;SDS011;8601;48.718;8.992;2023-03-01T11:55:24;16.90;;;15.10;;
16969;SDS011;8601;48.718;8.992;2023-03-01T11:58:02;18.70;;;15.97;;
16969;SDS011;8601;48.718;8.992;2023-03-01T12:01:00;20.80;;;16.10;;
16969;SDS011;8601;48.718;8.992;2023-03-01T12:03:39;20.30;;;15.87;;
16969;SDS011;8601;48.718;8.992;2023-03-01T12:06:27;19.47;;;15.07;;
16969;SDS011;8601;48.718;8.992;2023-03-01T12:09:02;17.20;;;14.13;;
16969;SDS011;8601;48.718;8.992;2023-03-01T12:11:50;17.63;;;15.50;;
16969;SDS011;8601;48.718;8.992;2023-03-01T12:15:01;16.77;;;14.93;;
16969;SDS011;8601;48.718;8.992;2023-03-01T12:21:10;18.00;;;15.57;;
16969;SDS011;8601;48.718;8.992;2023-03-01T12:26:44;17.43;;;14.93;;
16969;SDS011;8601;48.718;8.992;2023-03-01T12:29:23;17.30;;;15.40;;
16969;SDS011;8601;48.718;8.992;2023-03-01T12:32:04;18.10;;;15.40;;
16969;SDS011;8601;48.718;8.992;2023-03-01T12:34:55;17.13;;;14.77;;
16969;SDS011;8601;48.718;8.992;2023-03-01T12:37:58;18.43;;;16.20;;
16969;SDS011;8601;48.718;8.992;2023-03-01T12:40:46;17.30;;;15.43;;
16969;SDS011;8601;48.718;8.992;2023-03-01T12:43:30;18.20;;;15.03;;
16969;SDS011;8601;48.718;8.992;2023-03-01T12:46:10;18.50;;;14.97;;
16969;SDS011;8601;48.718;8.992;2023-03-01T12:48:49;17.50;;;14.73;;
16969;SDS011;8601;48.718;8.992;2023-03-01T12:51:27;17.83;;;14.83;;
16969;SDS011;8601;48.718;8.992;2023-03-01T12:53:57;18.60;;;15.43;;
16969;SDS011;8601;48.718;8.992;2023-03-01T12:56:30;20.27;;;14.30;;
16969;SDS011;8601;48.718;8.992;2023-03-01T12:59:02;17.97;;;14.43;;
16969;SDS011;8601;48.718;8.992;2023-03-01T13:01:39;16.27;;;14.10;;
16969;SDS011;8601;48.718;8.992;2023-03-01T13:04:16;16.33;;;14.60;;
16969;SDS011;8601;48.718;8.992;2023-03-01T13:07:01;17.13;;;14.73;;
16969;SDS011;8601;48.718;8.992;2023-03-01T13:09:40;17.00;;;14.43;;
16969;SDS011;8601;48.718;8.992;2023-03-01T13:15:26;15.40;;;13.33;;
16969;SDS011;8601;48.718;8.992;2023-03-01T13:17:54;16.30;;;13.53;;
16969;SDS011;8601;48.718;8.992;2023-03-01T13:20:23;15.17;;;13.23;;
16969;SDS011;8601;48.718;8.992;2023-03-01T13:23:00;15.00;;;13.40;;
16969;SDS011;8601;48.718;8.992;2023-03-01T13:25:33;15.43;;;13.80;;
16969;SDS011;8601;48.718;8.992;2023-03-01T13:31:02;15.90;;;14.20;;
16969;SDS011;8601;48.718;8.992;2023-03-01T13:39:27;17.67;;;14.80;;
16969;SDS011;8601;48.718;8.992;2023-03-01T13:41:57;17.03;;;13.80;;
16969;SDS011;8601;48.718;8.992;2023-03-01T13:44:26;18.40;;;15.73;;
16969;SDS011;8601;48.718;8.992;2023-03-01T13:46:58;14.83;;;13.30;;
16969;SDS011;8601;48.718;8.992;2023-03-01T13:49:29;20.10;;;14.87;;
16969;SDS011;8601;48.718;8.992;2023-03-01T13:52:13;20.00;;;14.43;;
16969;SDS011;8601;48.718;8.992;2023-03-01T13:55:03;18.53;;;15.50;;
16969;SDS011;8601;48.718;8.992;2023-03-01T13:57:33;17.30;;;15.50;;
16969;SDS011;8601;48.718;8.992;2023-03-01T14:00:04;16.30;;;14.40;;
16969;SDS011;8601;48.718;8.992;2023-03-01T14:02:34;17.57;;;14.40;;
16969;SDS011;8601;48.718;8.992;2023-03-01T14:05:01;16.60;;;14.13;;
16969;SDS011;8601;48.718;8.992;2023-03-01T14:07:28;17.63;;;15.40;;
16969;SDS011;8601;48.718;8.992;2023-03-01T14:09:56;17.60;;;14.70;;
16969;SDS011;8601;48.718;8.992;2023-03-01T14:12:32;16.87;;;13.90;;
16969;SDS011;8601;48.718;8.992;2023-03-01T14:15:13;17.00;;;15.20;;
16969;SDS011;8601;48.718;8.992;2023-03-01T14:20:38;18.47;;;13.20;;
16969;SDS011;8601;48.718;8.992;2023-03-01T14:23:09;16.83;;;14.70;;
16969;SDS011;8601;48.718;8.992;2023-03-01T14:25:39;17.17;;;14.97;;
16969;SDS011;8601;48.718;8.992;2023-03-01T14:28:23;18.87;;;15.50;;
16969;SDS011;8601;48.718;8.992;2023-03-01T14:30:54;16.90;;;14.67;;
16969;SDS011;8601;48.718;8.992;2023-03-01T14:33:26;19.20;;;15.37;;
16969;SDS011;8601;48.718;8.992;2023-03-01T14:35:55;18.93;;;14.43;;
16969;SDS011;8601;48.718;8.992;2023-03-01T14:38:29;18.37;;;16.37;;
16969;SDS011;8601;48.718;8.992;2023-03-01T14:40:59;17.23;;;14.80;;
16969;SDS011;8601;48.718;8.992;2023-03-01T14:43:29;18.07;;;13.97;;
16969;SDS011;8601;48.718;8.992;2023-03-01T14:45:56;17.33;;;15.50;;
16969;SDS011;8601;48.718;8.992;2023-03-01T14:48:26;18.37;;;15.40;;
16969;SDS011;8601;48.718;8.992;2023-03-01T14:50:54;19.33;;;16.70;;
16969;SDS011;8601;48.718;8.992;2023-03-01T14:53:22;19.80;;;16.50;;
16969;SDS011;8601;48.718;8.992;2023-03-01T14:55:51;18.30;;;16.27;;
16969;SDS011;8601;48.718;8.992;2023-03-01T14:58:21;19.37;;;15.87;;
16969;SDS011;8601;48.718;8.992;2023-03-01T15:00:51;18.67;;;15.70;;
16969;SDS011;8601;48.718;8.992;2023-03-01T15:03:23;18.87;;;16.63;;
16969;SDS011;8601;48.718;8.992;2023-03-01T15:05:58;18.93;;;14.63;;
16969;SDS011;8601;48.718;8.992;2023-03-01T15:08:27;18.90;;;16.23;;
16969;SDS011;8601;48.718;8.992;2023-03-01T15:11:02;20.07;;;16.17;;
16969;SDS011;8601;48.718;8.992;2023-03-01T15:13:31;19.23;;;16.07;;
16969;SDS011;8601;48.718;8.992;2023-03-01T15:16:03;18.97;;;15.97;;
16969;SDS011;8601;48.718;8.992;2023-03-01T15:18:33;20.03;;;15.93;;